Ustyuzhna, Russia
Current Conditions -  °F | °C
As of 11:00 AM on Thursday 29 Jan 2015 (Local Time) from ULWC Reporting Station
Haze Haze  
Wind Chill: 17°   Ceiling: 300
Heat Index: 25°   Visibility: 2.7mi
Dew Point: 23°   Wind: 7mph
Humidity: 93%   Direction: 210°SSW
Pressure: 29.59"   Gusts: 13mph
Location:  58.85°N, 36.43°E
Report Text: ULWC 290800Z 21003G06MPS 4400 BR OVC003 M04/M05 Q1002 TEMPO2000 SN BKN003 RMK QBB090 QFE742/0989 SC039
Loading
Personal Weather Stations






























Interactive Weather Map New forecast layout! Learn more

10-Day Weather Forecast

Advertisements
Track Severe Weather on mobile